Terminal Aerodrome Forecast
Issued by NWS

Home | Current Version | Previous Version | Text Only | Print | Product List | Glossary Off
Versions: 1 2 3 4 5 6 7 8 9 10 11 12 13 14 15 16 17 18 19 20 21 22 23 24 25 26 27 28

000
FTUS43 KABR 301100
TAFATY
TAF
KATY 301134Z 3012/3112 35009KT P6SM OVC005
      TEMPO 3012/3014 3SM BR OVC003
     FM301500 36005KT P6SM BKN008
     FM301700 04005KT P6SM SKC
     FM302300 14009KT P6SM SKC
     FM310400 17015KT P6SM SCT100=

USA.gov is the U.S. government's official web portal to all federal, state and local government web resources and services.